Flight Track Log - Related Links

Times and Time Zones

All times are in EDT time to prevent confusion due to time zone crossing. See the FFT532 flight status page for this flight to view local times or setup timezone preferences in your user account.

Time Position Orientation Groundspeed Altitude Reporting Facility
EDT Latitude Longitude Course Direction KTS MPH feet Rate Location/Type
Tue 11:36:14 AM 39.8833 -104.5500 90° East 200 230 7,500  Level Denver TRACON
Tue 11:37:14 AM 39.8833 -104.4500 90° East 269 310 9,200 2,089 Climbing Denver TRACON
Tue 11:38:06 AM 39.8733 -104.3622 98° East 285 328 11,400 2,211 Climbing Denver Center
Tue 11:39:08 AM 39.8731 -104.2483 90° East 312 359 13,400 1,694 Climbing Denver Center
Tue 11:40:10 AM 39.8725 -104.1092 90° East 368 423 14,900 1,694 Climbing Denver Center
Tue 11:41:12 AM 39.8711 -103.9706 91° East 385 443 16,900 1,645 Climbing Denver Center
Tue 11:42:14 AM 39.8875 -103.8247 82° East 405 466 18,300 1,452 Climbing Denver Center
Tue 11:43:16 AM 39.9092 -103.6858 78° East 405 466 19,900 1,597 Climbing Denver Center
Tue 11:44:18 AM 39.9322 -103.5331 79° East 427 491 21,600 1,694 Climbing Denver Center
Tue 11:45:20 AM 39.9597 -103.3444 79° East 443 510 23,400 1,548 Climbing Denver Center
Tue 11:46:22 AM 39.9836 -103.1867 79° East 446 513 24,800 1,210 Climbing Denver Center
Tue 11:47:24 AM 40.0075 -103.0247 79° East 456 525 25,900 1,016 Climbing Denver Center
Tue 11:48:26 AM 40.0322 -102.8594 79° East 463 533 26,900 1,200 Climbing Denver Center
Tue 11:49:29 AM 40.0592 -102.6669 80° East 474 545 28,400 1,248 Climbing Denver Center
Tue 11:50:31 AM 40.0825 -102.5039 79° East 477 549 29,500 1,306 Climbing Denver Center
Tue 11:51:33 AM 40.1089 -102.3172 79° East 471 542 31,100 1,306 Climbing Denver Center
Tue 11:52:35 AM 40.1319 -102.1556 79° East 473 544 32,200 1,355 Climbing Denver Center
Tue 11:53:37 AM 40.1564 -101.9689 80° East 469 540 33,900 1,355 Climbing Denver Center
Tue 11:54:39 AM 40.1781 -101.8111 80° East 463 533 35,000 1,016 Climbing Denver Center
Tue 11:55:41 AM 40.2025 -101.6303 80° East 454 522 36,000 823 Climbing Denver Center
Tue 11:56:43 AM 40.2239 -101.4731 80° East 458 527 36,700 484 Climbing Denver Center
Tue 11:57:45 AM 40.2478 -101.2867 80° East 466 536 37,000 145 Climbing Denver Center
Tue 11:58:47 AM 40.2686 -101.1253 80° East 471 542 37,000  Level Denver Center
Tue 11:59:49 AM 40.2925 -100.9350 81° East 476 548 37,000  Level Denver Center
Tue 12:00:51 PM 40.3125 -100.7742 81° East 471 542 37,000  Level Denver Center
Tue 12:01:53 PM 40.3367 -100.5839 80° East 475 547 37,000  Level Denver Center
Tue 12:02:55 PM 40.3567 -100.4206 81° East 476 548 37,000  Level Denver Center
Tue 12:03:58 PM 40.3794 -100.2303 81° East 476 548 37,000  Level Denver Center
Tue 12:05:00 PM 40.3992 -100.0689 81° East 472 543 37,000  Level Denver Center
Tue 12:06:02 PM 40.4219 -99.8811 81° East 471 542 37,000  Level Denver Center
Tue 12:07:04 PM 40.4389 -99.7364 81° East 471 542 37,000  Level Denver Center
Tue 12:08:06 PM 40.4622 -99.5333 81° East 470 541 37,000  Level Denver Center
Tue 12:09:08 PM 40.4808 -99.3656 82° East 468 539 37,000  Level Denver Center
Tue 12:10:10 PM 40.5003 -99.1950 81° East 472 543 37,000  Level Denver Center
Tue 12:11:12 PM 40.5186 -99.0278 82° East 468 539 37,000  Level Denver Center
Tue 12:11:54 PM 40.5336 -98.8925 82° East 471 542 37,000  Level Minneapolis Center
Tue 12:12:56 PM 40.5517 -98.7228 82° East 473 544 37,000  Level Minneapolis Center
Tue 12:13:58 PM 40.5689 -98.5528 82° East 473 544 37,000  Level Minneapolis Center
Tue 12:15:00 PM 40.5861 -98.3842 82° East 470 541 37,000  Level Minneapolis Center
Tue 12:16:02 PM 40.6047 -98.2164 82° East 468 539 37,000  Level Minneapolis Center
Tue 12:17:04 PM 40.6233 -98.0150 83° East 466 536 37,000  Level Minneapolis Center
Tue 12:18:07 PM 40.6411 -97.8469 82° East 465 535 37,000  Level Minneapolis Center
Tue 12:19:09 PM 40.6575 -97.6764 83° East 470 541 37,000  Level Minneapolis Center
Tue 12:20:11 PM 40.6739 -97.5042 83° East 473 544 37,000  Level Minneapolis Center
Tue 12:21:13 PM 40.6914 -97.3236 83° East 461 531 37,000  Level Minneapolis Center
Tue 12:22:15 PM 40.7067 -97.1608 83° East 453 521 37,000  Level Minneapolis Center
Tue 12:23:17 PM 40.7206 -96.9978 84° East 450 518 37,000  Level Minneapolis Center
Tue 12:24:19 PM 40.7353 -96.8378 83° East 445 512 37,000 -48 Level Minneapolis Center
Tue 12:25:21 PM 40.7503 -96.6794 83° East 440 506 36,900  Descending Minneapolis Center
Tue 12:26:23 PM 40.7672 -96.4878 83° East 440 506 37,000 48 Climbing Minneapolis Center
Tue 12:27:25 PM 40.7808 -96.3272 84° East 443 510 37,000  Level Minneapolis Center
Tue 12:28:27 PM 40.7947 -96.1650 83° East 446 513 37,000  Level Minneapolis Center
Tue 12:29:30 PM 40.8086 -96.0017 84° East 449 517 37,000  Level Minneapolis Center
Tue 12:30:32 PM 40.8253 -95.8061 84° East 450 518 37,000  Level Minneapolis Center
Tue 12:31:34 PM 40.8372 -95.6439 84° East 449 517 37,000  Level Minneapolis Center
Tue 12:32:35 PM 40.8478 -95.5128 84° East 450 518 37,000  Level Minneapolis Center
Tue 12:33:38 PM 40.9208 -95.3472 60° Northeast 446 513 37,000  Level Minneapolis Center
Tue 12:34:40 PM 41.0256 -95.2597 32° Northeast 448 516 37,000  Level Minneapolis Center
Tue 12:35:42 PM 41.1306 -95.1708 33° Northeast 450 518 37,000  Level Minneapolis Center
Tue 12:36:44 PM 41.2350 -95.0317 45° Northeast 457 526 37,000  Level Minneapolis Center
Tue 12:37:46 PM 41.2483 -94.8719 84° East 443 510 37,000  Level Minneapolis Center
Tue 12:38:48 PM 41.2489 -94.7075 90° East 444 511 37,000  Level Minneapolis Center
Tue 12:39:50 PM 41.2497 -94.5444 90° East 442 509 37,000  Level Minneapolis Center
Tue 12:40:52 PM 41.2494 -94.3828 90° East 440 506 37,000  Level Minneapolis Center
Tue 12:41:54 PM 41.2481 -94.2117 91° East 451 519 37,000  Level Minneapolis Center
Tue 12:42:56 PM 41.2486 -94.0044 90° East 465 535 37,000  Level Minneapolis Center
Tue 12:43:58 PM 41.2481 -93.8311 90° East 470 541 37,000  Level Minneapolis Center
Tue 12:45:00 PM 41.2478 -93.6589 90° East 470 541 37,000  Level Minneapolis Center
Tue 12:46:03 PM 41.2489 -93.4878 89° East 468 539 37,000 -288 Level Minneapolis Center
Tue 12:47:05 PM 41.2475 -93.3167 91° East 467 537 36,400 -726 Descending Minneapolis Center
Tue 12:48:07 PM 41.2461 -93.1450 91° East 466 536 35,500 -919 Descending Minneapolis Center
Tue 12:49:09 PM 41.2444 -92.9386 91° East 467 537 34,500 -939 Descending Minneapolis Center
Tue 12:50:02 PM 41.2428 -92.7967 91° East 473 544 33,700 -887 Descending Chicago Center
Tue 12:51:04 PM 41.2403 -92.6172 91° East 484 557 32,800 -823 Descending Chicago Center
Tue 12:52:06 PM 41.2378 -92.4361 91° East 490 564 32,000 -871 Descending Chicago Center
Tue 12:53:08 PM 41.2344 -92.2372 91° East 490 564 31,000 -488 Descending Chicago Center
Tue 12:54:09 PM 41.2306 -92.0419 91° East 487 560 31,000 -146 Level Chicago Center
Tue 12:55:11 PM 41.2281 -91.8717 91° East 470 541 30,700 -581 Descending Chicago Center
Tue 12:56:13 PM 41.2206 -91.6983 93° East 472 543 29,800 -823 Descending Chicago Center
Tue 12:57:15 PM 41.2169 -91.5231 92° East 462 532 29,000 -387 Descending Chicago Center
Tue 12:58:17 PM 41.2128 -91.3547 92° East 458 527 29,000 -435 Level Chicago Center
Tue 12:59:19 PM 41.2072 -91.1858 92° East 457 526 28,100 -1,161 Descending Chicago Center
Tue 01:00:21 PM 41.2022 -91.0186 92° East 455 524 26,600 -1,707 Descending Chicago Center
Tue 01:01:22 PM 41.1961 -90.8231 92° East 445 512 24,600 -1,659 Descending Chicago Center
Tue 01:02:24 PM 41.1908 -90.6631 92° East 435 501 23,200 -1,306 Descending Chicago Center
Tue 01:03:26 PM 41.1869 -90.5111 92° East 416 479 21,900 -1,258 Descending Chicago Center
Tue 01:04:28 PM 41.1836 -90.3600 92° East 410 472 20,600 -1,258 Descending Chicago Center
Tue 01:05:30 PM 41.1789 -90.2114 92° East 405 466 19,300 -1,258 Descending Chicago Center
Tue 01:06:32 PM 41.1747 -90.0692 92° East 388 447 18,000 -1,210 Descending Chicago Center
Tue 01:07:34 PM 41.1706 -89.9267 92° East 384 442 16,800 -1,355 Descending Chicago Center
Tue 01:08:36 PM 41.1661 -89.7611 92° East 374 430 15,200 -871 Descending Chicago Center
Tue 01:09:38 PM 41.1619 -89.6233 92° East 371 427 15,000 -242 Descending Chicago Center
Tue 01:10:40 PM 41.1681 -89.4850 87° East 374 430 14,700 -435 Descending Chicago Center
Tue 01:11:42 PM 41.1764 -89.3472 85° East 373 429 14,100 -677 Descending Chicago Center
Tue 01:12:44 PM 41.2017 -89.2158 76° East 380 437 13,300 -919 Descending Chicago Center
Tue 01:13:46 PM 41.2539 -89.0828 62° Northeast 371 427 12,200 -1,016 Descending Chicago Center
Tue 01:14:48 PM 41.3008 -88.9628 62° Northeast 367 422 11,200 -1,024 Descending Chicago Center
Tue 01:16:30 PM 41.3833 -88.7500 63° Northeast 361 415 9,400 -1,074 Descending Chicago TRACON
Tue 01:17:30 PM 41.4333 -88.6500 56° Northeast 324 373 8,300 -1,100 Descending Chicago TRACON
Tue 01:18:30 PM 41.4667 -88.5333 69° East 306 352 7,200 -1,150 Descending Chicago TRACON
Tue 01:19:30 PM 41.5000 -88.4333 66° East 307 353 6,000 -545 Descending Chicago TRACON
Tue 01:20:31 PM 41.5167 -88.3333 77° East 308 354 6,100 -378 Climbing Chicago TRACON
Tue 01:21:37 PM 41.5500 -88.2000 71° East 299 344 5,200 -476 Descending Chicago TRACON
Tue 01:22:37 PM 41.5500 -88.1000 90° East 304 350 5,100 -50 Descending Chicago TRACON
Tue 01:23:37 PM 41.5500 -87.9833 90° East 303 349 5,100 -50 Level Chicago TRACON
Tue 01:24:37 PM 41.5667 -87.8667 79° East 304 350 5,000 -66 Descending Chicago TRACON
Tue 01:25:08 PM 41.5628 -87.8328 99° East 304 350 5,000 -516 Level Chicago Center
Tue 01:26:10 PM 41.6139 -87.7228 58° Northeast 298 343 4,200 -774 Descending Chicago Center
Tue 01:27:12 PM 41.6606 -87.6469 51° Northeast 281 323 3,400 -726 Descending Chicago Center
Tue 01:28:14 PM 41.6983 -87.6164 31° Northeast 235 270 2,700 -576 Descending Chicago Center
Tue 01:29:17 PM 41.7239 -87.6683 303° West 187 215 2,200 -435 Descending Chicago Center
Tue 01:30:18 PM 41.7681 -87.6872 342° North 183 211 1,800 -341 Descending Chicago Center
Tue 01:31:20 PM 41.8186 -87.7025 347° North 180 207 1,500 -435 Descending Chicago Center
Tue 01:32:22 PM 41.7936 -87.7408 229° Southwest 153 176 900 -581 Descending Chicago Center

Login

Don't have an account? Register now (free) for customized features, flight alerts, and more!